sensor_id;sensor_type;location;lat;lon;timestamp;P1;durP1;ratioP1;P2;durP2;ratioP2
66721;SDS011;53633;49.932;10.884;2022-09-09T00:00:32;4.70;;;0.90;;
66721;SDS011;53633;49.932;10.884;2022-09-09T00:03:07;4.38;;;1.25;;
66721;SDS011;53633;49.932;10.884;2022-09-09T00:05:41;5.23;;;0.90;;
66721;SDS011;53633;49.932;10.884;2022-09-09T00:08:19;3.65;;;0.80;;
66721;SDS011;53633;49.932;10.884;2022-09-09T00:10:59;4.45;;;0.82;;
66721;SDS011;53633;49.932;10.884;2022-09-09T00:13:37;5.72;;;1.42;;
66721;SDS011;53633;49.932;10.884;2022-09-09T00:16:11;4.65;;;0.93;;
66721;SDS011;53633;49.932;10.884;2022-09-09T00:18:49;4.40;;;1.00;;
66721;SDS011;53633;49.932;10.884;2022-09-09T00:21:30;3.95;;;1.05;;
66721;SDS011;53633;49.932;10.884;2022-09-09T00:24:08;5.07;;;1.20;;
66721;SDS011;53633;49.932;10.884;2022-09-09T00:26:45;6.63;;;1.10;;
66721;SDS011;53633;49.932;10.884;2022-09-09T00:29:23;5.80;;;1.10;;
66721;SDS011;53633;49.932;10.884;2022-09-09T00:32:04;3.30;;;0.97;;
66721;SDS011;53633;49.932;10.884;2022-09-09T00:34:54;3.83;;;1.13;;
66721;SDS011;53633;49.932;10.884;2022-09-09T00:37:26;4.30;;;0.90;;
66721;SDS011;53633;49.932;10.884;2022-09-09T00:39:57;5.45;;;1.00;;
66721;SDS011;53633;49.932;10.884;2022-09-09T00:42:31;5.55;;;1.00;;
66721;SDS011;53633;49.932;10.884;2022-09-09T00:45:24;6.40;;;0.80;;
66721;SDS011;53633;49.932;10.884;2022-09-09T00:48:13;7.55;;;1.10;;
66721;SDS011;53633;49.932;10.884;2022-09-09T00:50:43;6.90;;;1.20;;
66721;SDS011;53633;49.932;10.884;2022-09-09T00:53:22;5.60;;;1.15;;
66721;SDS011;53633;49.932;10.884;2022-09-09T00:56:23;4.70;;;1.27;;
66721;SDS011;53633;49.932;10.884;2022-09-09T00:58:55;5.43;;;0.97;;
66721;SDS011;53633;49.932;10.884;2022-09-09T01:01:35;7.05;;;1.25;;
66721;SDS011;53633;49.932;10.884;2022-09-09T01:04:07;3.92;;;1.10;;
66721;SDS011;53633;49.932;10.884;2022-09-09T01:06:40;6.95;;;1.20;;
66721;SDS011;53633;49.932;10.884;2022-09-09T01:09:16;4.30;;;1.10;;
66721;SDS011;53633;49.932;10.884;2022-09-09T01:11:51;5.70;;;0.97;;
66721;SDS011;53633;49.932;10.884;2022-09-09T01:14:35;5.88;;;1.30;;
66721;SDS011;53633;49.932;10.884;2022-09-09T01:17:13;5.05;;;1.05;;
66721;SDS011;53633;49.932;10.884;2022-09-09T01:20:02;4.00;;;1.45;;
66721;SDS011;53633;49.932;10.884;2022-09-09T01:22:40;6.13;;;1.10;;
66721;SDS011;53633;49.932;10.884;2022-09-09T01:25:28;7.70;;;1.30;;
66721;SDS011;53633;49.932;10.884;2022-09-09T01:28:13;5.78;;;1.30;;
66721;SDS011;53633;49.932;10.884;2022-09-09T01:30:45;7.57;;;1.20;;
66721;SDS011;53633;49.932;10.884;2022-09-09T01:33:16;7.90;;;1.50;;
66721;SDS011;53633;49.932;10.884;2022-09-09T01:35:47;6.57;;;1.48;;
66721;SDS011;53633;49.932;10.884;2022-09-09T01:38:22;5.57;;;0.83;;
66721;SDS011;53633;49.932;10.884;2022-09-09T01:40:58;7.90;;;1.13;;
66721;SDS011;53633;49.932;10.884;2022-09-09T01:43:29;5.97;;;1.38;;
66721;SDS011;53633;49.932;10.884;2022-09-09T01:45:59;5.18;;;1.40;;
66721;SDS011;53633;49.932;10.884;2022-09-09T01:48:32;4.70;;;1.20;;
66721;SDS011;53633;49.932;10.884;2022-09-09T01:50:59;5.50;;;1.63;;
66721;SDS011;53633;49.932;10.884;2022-09-09T01:53:28;9.43;;;2.03;;
66721;SDS011;53633;49.932;10.884;2022-09-09T01:56:00;9.35;;;1.52;;
66721;SDS011;53633;49.932;10.884;2022-09-09T02:01:39;4.63;;;1.10;;
66721;SDS011;53633;49.932;10.884;2022-09-09T02:04:20;8.63;;;1.20;;
66721;SDS011;53633;49.932;10.884;2022-09-09T02:06:57;9.25;;;1.88;;
66721;SDS011;53633;49.932;10.884;2022-09-09T02:09:28;4.85;;;1.27;;
66721;SDS011;53633;49.932;10.884;2022-09-09T02:11:57;5.75;;;1.50;;
66721;SDS011;53633;49.932;10.884;2022-09-09T02:14:34;6.00;;;1.33;;
66721;SDS011;53633;49.932;10.884;2022-09-09T02:17:08;5.17;;;1.00;;
66721;SDS011;53633;49.932;10.884;2022-09-09T02:19:39;6.95;;;1.20;;
66721;SDS011;53633;49.932;10.884;2022-09-09T02:22:12;5.80;;;1.48;;
66721;SDS011;53633;49.932;10.884;2022-09-09T02:24:43;4.57;;;1.20;;
66721;SDS011;53633;49.932;10.884;2022-09-09T02:27:14;8.05;;;1.15;;
66721;SDS011;53633;49.932;10.884;2022-09-09T02:29:44;5.47;;;1.30;;
66721;SDS011;53633;49.932;10.884;2022-09-09T02:32:15;5.75;;;1.23;;
66721;SDS011;53633;49.932;10.884;2022-09-09T02:34:47;8.15;;;1.20;;
66721;SDS011;53633;49.932;10.884;2022-09-09T02:37:17;9.75;;;1.88;;
66721;SDS011;53633;49.932;10.884;2022-09-09T02:39:47;4.88;;;1.13;;
66721;SDS011;53633;49.932;10.884;2022-09-09T02:42:17;6.03;;;1.17;;
66721;SDS011;53633;49.932;10.884;2022-09-09T02:44:45;3.90;;;1.00;;
66721;SDS011;53633;49.932;10.884;2022-09-09T02:47:19;4.25;;;1.10;;
66721;SDS011;53633;49.932;10.884;2022-09-09T02:49:56;5.75;;;1.08;;
66721;SDS011;53633;49.932;10.884;2022-09-09T02:53:02;4.88;;;1.20;;
66721;SDS011;53633;49.932;10.884;2022-09-09T02:55:38;5.23;;;1.10;;
66721;SDS011;53633;49.932;10.884;2022-09-09T02:58:15;5.38;;;1.02;;
66721;SDS011;53633;49.932;10.884;2022-09-09T03:00:47;3.85;;;1.10;;
66721;SDS011;53633;49.932;10.884;2022-09-09T03:03:17;4.57;;;0.98;;
66721;SDS011;53633;49.932;10.884;2022-09-09T03:05:47;6.30;;;1.48;;
66721;SDS011;53633;49.932;10.884;2022-09-09T03:08:16;4.77;;;1.00;;
66721;SDS011;53633;49.932;10.884;2022-09-09T03:10:50;6.03;;;1.50;;
66721;SDS011;53633;49.932;10.884;2022-09-09T03:13:18;5.10;;;1.52;;
66721;SDS011;53633;49.932;10.884;2022-09-09T03:15:47;4.78;;;1.25;;
66721;SDS011;53633;49.932;10.884;2022-09-09T03:18:18;8.38;;;1.67;;
66721;SDS011;53633;49.932;10.884;2022-09-09T03:20:47;4.90;;;1.43;;
66721;SDS011;53633;49.932;10.884;2022-09-09T03:23:13;4.38;;;1.13;;
66721;SDS011;53633;49.932;10.884;2022-09-09T03:25:46;6.78;;;1.30;;
66721;SDS011;53633;49.932;10.884;2022-09-09T03:28:14;4.03;;;1.02;;
66721;SDS011;53633;49.932;10.884;2022-09-09T03:30:41;8.85;;;1.30;;
66721;SDS011;53633;49.932;10.884;2022-09-09T03:33:14;4.37;;;1.20;;
66721;SDS011;53633;49.932;10.884;2022-09-09T03:35:46;6.03;;;1.20;;
66721;SDS011;53633;49.932;10.884;2022-09-09T03:38:17;6.20;;;1.20;;
66721;SDS011;53633;49.932;10.884;2022-09-09T03:40:50;4.28;;;1.02;;
66721;SDS011;53633;49.932;10.884;2022-09-09T03:43:21;7.00;;;1.33;;
66721;SDS011;53633;49.932;10.884;2022-09-09T03:45:49;4.87;;;1.47;;
66721;SDS011;53633;49.932;10.884;2022-09-09T03:48:22;6.53;;;1.30;;
66721;SDS011;53633;49.932;10.884;2022-09-09T03:50:54;6.78;;;1.20;;
66721;SDS011;53633;49.932;10.884;2022-09-09T03:53:26;4.57;;;1.02;;
66721;SDS011;53633;49.932;10.884;2022-09-09T03:55:56;6.40;;;1.42;;
66721;SDS011;53633;49.932;10.884;2022-09-09T03:58:25;4.03;;;1.00;;
66721;SDS011;53633;49.932;10.884;2022-09-09T04:00:54;6.50;;;1.70;;
66721;SDS011;53633;49.932;10.884;2022-09-09T04:03:25;6.03;;;1.33;;
66721;SDS011;53633;49.932;10.884;2022-09-09T04:06:01;5.00;;;1.20;;
66721;SDS011;53633;49.932;10.884;2022-09-09T04:08:29;5.55;;;1.40;;
66721;SDS011;53633;49.932;10.884;2022-09-09T04:10:58;5.60;;;1.47;;
66721;SDS011;53633;49.932;10.884;2022-09-09T04:13:32;5.10;;;1.60;;
66721;SDS011;53633;49.932;10.884;2022-09-09T04:16:08;6.57;;;1.48;;
66721;SDS011;53633;49.932;10.884;2022-09-09T04:18:37;5.93;;;1.50;;
66721;SDS011;53633;49.932;10.884;2022-09-09T04:21:10;6.28;;;1.50;;
66721;SDS011;53633;49.932;10.884;2022-09-09T04:23:39;5.40;;;1.60;;
66721;SDS011;53633;49.932;10.884;2022-09-09T04:26:07;5.03;;;1.38;;
66721;SDS011;53633;49.932;10.884;2022-09-09T04:28:35;4.47;;;1.10;;
66721;SDS011;53633;49.932;10.884;2022-09-09T04:31:05;4.88;;;1.95;;
66721;SDS011;53633;49.932;10.884;2022-09-09T04:33:34;4.53;;;1.67;;
66721;SDS011;53633;49.932;10.884;2022-09-09T04:36:10;10.10;;;1.80;;
66721;SDS011;53633;49.932;10.884;2022-09-09T04:38:40;5.70;;;1.63;;
66721;SDS011;53633;49.932;10.884;2022-09-09T04:41:10;5.55;;;1.70;;
66721;SDS011;53633;49.932;10.884;2022-09-09T04:43:38;7.53;;;1.60;;
66721;SDS011;53633;49.932;10.884;2022-09-09T04:46:11;4.80;;;1.55;;
66721;SDS011;53633;49.932;10.884;2022-09-09T04:48:38;5.83;;;1.47;;
66721;SDS011;53633;49.932;10.884;2022-09-09T04:51:08;4.47;;;1.17;;
66721;SDS011;53633;49.932;10.884;2022-09-09T04:53:42;7.25;;;1.48;;
66721;SDS011;53633;49.932;10.884;2022-09-09T04:56:10;3.78;;;1.25;;
66721;SDS011;53633;49.932;10.884;2022-09-09T04:58:51;6.20;;;1.30;;
66721;SDS011;53633;49.932;10.884;2022-09-09T05:01:25;4.20;;;1.10;;
66721;SDS011;53633;49.932;10.884;2022-09-09T05:03:54;4.75;;;1.13;;
66721;SDS011;53633;49.932;10.884;2022-09-09T05:06:22;5.07;;;1.35;;
66721;SDS011;53633;49.932;10.884;2022-09-09T05:08:54;4.90;;;1.30;;
66721;SDS011;53633;49.932;10.884;2022-09-09T05:11:22;6.88;;;1.23;;
66721;SDS011;53633;49.932;10.884;2022-09-09T05:13:54;8.40;;;1.27;;
66721;SDS011;53633;49.932;10.884;2022-09-09T05:16:23;8.02;;;1.33;;
66721;SDS011;53633;49.932;10.884;2022-09-09T05:18:51;5.95;;;1.40;;
66721;SDS011;53633;49.932;10.884;2022-09-09T05:21:22;4.03;;;1.17;;
66721;SDS011;53633;49.932;10.884;2022-09-09T05:23:55;5.25;;;1.33;;
66721;SDS011;53633;49.932;10.884;2022-09-09T05:26:24;4.70;;;0.93;;
66721;SDS011;53633;49.932;10.884;2022-09-09T05:28:52;4.40;;;1.25;;
66721;SDS011;53633;49.932;10.884;2022-09-09T05:31:21;5.43;;;1.35;;
66721;SDS011;53633;49.932;10.884;2022-09-09T05:33:52;6.75;;;1.20;;
66721;SDS011;53633;49.932;10.884;2022-09-09T05:36:22;3.92;;;1.10;;
66721;SDS011;53633;49.932;10.884;2022-09-09T05:38:50;4.03;;;1.20;;
66721;SDS011;53633;49.932;10.884;2022-09-09T05:41:20;5.63;;;1.50;;
66721;SDS011;53633;49.932;10.884;2022-09-09T05:43:48;7.05;;;1.30;;
66721;SDS011;53633;49.932;10.884;2022-09-09T05:46:21;4.68;;;1.10;;
66721;SDS011;53633;49.932;10.884;2022-09-09T05:48:58;5.78;;;1.40;;
66721;SDS011;53633;49.932;10.884;2022-09-09T05:51:28;5.80;;;1.17;;
66721;SDS011;53633;49.932;10.884;2022-09-09T05:53:58;7.88;;;1.50;;
66721;SDS011;53633;49.932;10.884;2022-09-09T05:56:31;5.03;;;1.23;;
66721;SDS011;53633;49.932;10.884;2022-09-09T05:59:04;5.38;;;1.15;;
66721;SDS011;53633;49.932;10.884;2022-09-09T06:01:33;6.30;;;1.25;;
66721;SDS011;53633;49.932;10.884;2022-09-09T06:04:02;6.73;;;1.27;;
66721;SDS011;53633;49.932;10.884;2022-09-09T06:06:31;6.40;;;1.35;;
66721;SDS011;53633;49.932;10.884;2022-09-09T06:09:13;7.55;;;1.40;;
66721;SDS011;53633;49.932;10.884;2022-09-09T06:11:46;6.10;;;1.30;;
66721;SDS011;53633;49.932;10.884;2022-09-09T06:14:14;4.60;;;1.50;;
66721;SDS011;53633;49.932;10.884;2022-09-09T06:16:42;6.13;;;1.30;;
66721;SDS011;53633;49.932;10.884;2022-09-09T06:19:12;4.88;;;1.40;;
66721;SDS011;53633;49.932;10.884;2022-09-09T06:21:39;8.77;;;2.03;;
66721;SDS011;53633;49.932;10.884;2022-09-09T06:24:07;7.82;;;1.48;;
66721;SDS011;53633;49.932;10.884;2022-09-09T06:26:36;6.95;;;1.30;;
66721;SDS011;53633;49.932;10.884;2022-09-09T06:29:12;8.13;;;1.80;;
66721;SDS011;53633;49.932;10.884;2022-09-09T06:31:40;4.35;;;1.45;;
66721;SDS011;53633;49.932;10.884;2022-09-09T06:34:08;4.88;;;1.48;;
66721;SDS011;53633;49.932;10.884;2022-09-09T06:36:36;8.73;;;1.90;;
66721;SDS011;53633;49.932;10.884;2022-09-09T06:39:06;4.80;;;1.30;;
66721;SDS011;53633;49.932;10.884;2022-09-09T06:41:40;5.23;;;1.20;;
66721;SDS011;53633;49.932;10.884;2022-09-09T06:44:11;8.65;;;1.90;;
66721;SDS011;53633;49.932;10.884;2022-09-09T06:46:51;6.60;;;1.52;;
66721;SDS011;53633;49.932;10.884;2022-09-09T06:49:20;4.97;;;1.27;;
66721;SDS011;53633;49.932;10.884;2022-09-09T06:51:52;7.05;;;1.70;;
66721;SDS011;53633;49.932;10.884;2022-09-09T06:54:20;8.13;;;1.60;;
66721;SDS011;53633;49.932;10.884;2022-09-09T06:56:48;5.50;;;1.60;;
66721;SDS011;53633;49.932;10.884;2022-09-09T06:59:19;6.82;;;1.40;;
66721;SDS011;53633;49.932;10.884;2022-09-09T07:01:46;4.00;;;1.27;;
66721;SDS011;53633;49.932;10.884;2022-09-09T07:04:20;6.35;;;1.48;;
66721;SDS011;53633;49.932;10.884;2022-09-09T07:06:52;5.90;;;1.30;;
66721;SDS011;53633;49.932;10.884;2022-09-09T07:09:20;5.72;;;1.38;;
66721;SDS011;53633;49.932;10.884;2022-09-09T07:11:48;8.68;;;1.70;;
66721;SDS011;53633;49.932;10.884;2022-09-09T07:14:25;4.78;;;1.30;;
66721;SDS011;53633;49.932;10.884;2022-09-09T07:16:52;8.77;;;1.80;;
66721;SDS011;53633;49.932;10.884;2022-09-09T07:19:25;5.33;;;1.50;;
66721;SDS011;53633;49.932;10.884;2022-09-09T07:21:54;6.68;;;1.25;;
66721;SDS011;53633;49.932;10.884;2022-09-09T07:24:22;9.93;;;1.60;;
66721;SDS011;53633;49.932;10.884;2022-09-09T07:26:49;6.63;;;1.30;;
66721;SDS011;53633;49.932;10.884;2022-09-09T07:29:17;5.18;;;1.40;;
66721;SDS011;53633;49.932;10.884;2022-09-09T07:31:48;5.30;;;1.50;;
66721;SDS011;53633;49.932;10.884;2022-09-09T07:34:15;5.43;;;1.00;;
66721;SDS011;53633;49.932;10.884;2022-09-09T07:36:43;6.22;;;1.23;;
66721;SDS011;53633;49.932;10.884;2022-09-09T07:39:21;5.82;;;1.05;;
66721;SDS011;53633;49.932;10.884;2022-09-09T07:41:55;6.45;;;1.30;;
66721;SDS011;53633;49.932;10.884;2022-09-09T07:44:23;3.77;;;0.93;;
66721;SDS011;53633;49.932;10.884;2022-09-09T07:46:54;7.22;;;1.10;;
66721;SDS011;53633;49.932;10.884;2022-09-09T07:49:24;7.22;;;1.20;;
66721;SDS011;53633;49.932;10.884;2022-09-09T07:51:58;6.45;;;0.98;;
66721;SDS011;53633;49.932;10.884;2022-09-09T07:54:25;3.80;;;0.73;;
66721;SDS011;53633;49.932;10.884;2022-09-09T07:56:58;4.70;;;0.83;;
66721;SDS011;53633;49.932;10.884;2022-09-09T07:59:25;4.25;;;0.80;;
66721;SDS011;53633;49.932;10.884;2022-09-09T08:01:55;4.05;;;0.60;;
66721;SDS011;53633;49.932;10.884;2022-09-09T08:04:25;4.70;;;1.00;;
66721;SDS011;53633;49.932;10.884;2022-09-09T08:06:53;3.72;;;0.77;;
66721;SDS011;53633;49.932;10.884;2022-09-09T08:09:22;3.60;;;0.70;;
66721;SDS011;53633;49.932;10.884;2022-09-09T08:12:00;3.80;;;0.85;;
66721;SDS011;53633;49.932;10.884;2022-09-09T08:14:30;3.22;;;0.70;;
66721;SDS011;53633;49.932;10.884;2022-09-09T08:17:02;2.17;;;0.70;;
66721;SDS011;53633;49.932;10.884;2022-09-09T08:19:31;4.20;;;0.88;;
66721;SDS011;53633;49.932;10.884;2022-09-09T08:22:04;2.27;;;0.60;;
66721;SDS011;53633;49.932;10.884;2022-09-09T08:24:33;2.97;;;0.70;;
66721;SDS011;53633;49.932;10.884;2022-09-09T08:27:02;4.13;;;1.15;;
66721;SDS011;53633;49.932;10.884;2022-09-09T08:29:32;3.60;;;0.57;;
66721;SDS011;53633;49.932;10.884;2022-09-09T08:32:00;2.75;;;0.63;;
66721;SDS011;53633;49.932;10.884;2022-09-09T08:34:30;3.57;;;0.60;;
66721;SDS011;53633;49.932;10.884;2022-09-09T08:36:59;2.83;;;0.85;;
66721;SDS011;53633;49.932;10.884;2022-09-09T08:39:31;4.03;;;0.80;;
66721;SDS011;53633;49.932;10.884;2022-09-09T08:45:01;4.70;;;1.00;;
66721;SDS011;53633;49.932;10.884;2022-09-09T08:47:42;4.23;;;0.73;;
66721;SDS011;53633;49.932;10.884;2022-09-09T08:50:21;4.38;;;0.65;;
66721;SDS011;53633;49.932;10.884;2022-09-09T08:52:54;3.50;;;0.80;;
66721;SDS011;53633;49.932;10.884;2022-09-09T08:55:35;4.85;;;0.90;;
66721;SDS011;53633;49.932;10.884;2022-09-09T08:58:12;4.47;;;0.88;;
66721;SDS011;53633;49.932;10.884;2022-09-09T09:00:44;4.80;;;0.67;;
66721;SDS011;53633;49.932;10.884;2022-09-09T09:03:25;4.45;;;0.88;;
66721;SDS011;53633;49.932;10.884;2022-09-09T09:06:04;3.05;;;0.80;;
66721;SDS011;53633;49.932;10.884;2022-09-09T09:08:57;3.13;;;0.88;;
66721;SDS011;53633;49.932;10.884;2022-09-09T09:11:34;4.18;;;0.80;;
66721;SDS011;53633;49.932;10.884;2022-09-09T09:14:09;3.33;;;0.80;;
66721;SDS011;53633;49.932;10.884;2022-09-09T09:16:42;4.35;;;0.60;;
66721;SDS011;53633;49.932;10.884;2022-09-09T09:19:17;2.25;;;0.80;;
66721;SDS011;53633;49.932;10.884;2022-09-09T09:21:46;5.05;;;0.90;;
66721;SDS011;53633;49.932;10.884;2022-09-09T09:24:19;2.67;;;0.80;;
66721;SDS011;53633;49.932;10.884;2022-09-09T09:26:50;6.20;;;0.77;;
66721;SDS011;53633;49.932;10.884;2022-09-09T09:29:18;3.50;;;0.63;;
66721;SDS011;53633;49.932;10.884;2022-09-09T09:31:48;2.90;;;0.70;;
66721;SDS011;53633;49.932;10.884;2022-09-09T09:34:20;3.38;;;0.60;;
66721;SDS011;53633;49.932;10.884;2022-09-09T09:36:55;4.30;;;0.80;;
66721;SDS011;53633;49.932;10.884;2022-09-09T09:39:25;3.70;;;0.70;;
66721;SDS011;53633;49.932;10.884;2022-09-09T09:42:14;3.22;;;0.80;;
66721;SDS011;53633;49.932;10.884;2022-09-09T09:44:55;3.13;;;0.80;;
66721;SDS011;53633;49.932;10.884;2022-09-09T09:47:23;6.38;;;1.45;;
66721;SDS011;53633;49.932;10.884;2022-09-09T09:49:59;4.28;;;1.10;;
66721;SDS011;53633;49.932;10.884;2022-09-09T09:52:28;2.97;;;0.70;;
66721;SDS011;53633;49.932;10.884;2022-09-09T09:54:59;8.27;;;0.95;;
66721;SDS011;53633;49.932;10.884;2022-09-09T09:57:34;3.35;;;1.08;;
66721;SDS011;53633;49.932;10.884;2022-09-09T10:00:12;5.65;;;0.90;;
66721;SDS011;53633;49.932;10.884;2022-09-09T10:02:41;4.80;;;0.80;;
66721;SDS011;53633;49.932;10.884;2022-09-09T10:05:15;3.93;;;0.90;;
66721;SDS011;53633;49.932;10.884;2022-09-09T10:08:04;3.03;;;0.70;;
66721;SDS011;53633;49.932;10.884;2022-09-09T10:10:59;3.55;;;0.70;;
66721;SDS011;53633;49.932;10.884;2022-09-09T10:13:37;4.18;;;0.80;;
66721;SDS011;53633;49.932;10.884;2022-09-09T10:16:17;4.05;;;0.68;;
66721;SDS011;53633;49.932;10.884;2022-09-09T10:18:58;3.70;;;0.53;;
66721;SDS011;53633;49.932;10.884;2022-09-09T10:24:20;3.00;;;0.80;;
66721;SDS011;53633;49.932;10.884;2022-09-09T10:26:55;4.47;;;0.70;;
66721;SDS011;53633;49.932;10.884;2022-09-09T10:29:47;4.10;;;0.90;;
66721;SDS011;53633;49.932;10.884;2022-09-09T10:32:30;4.37;;;0.90;;
66721;SDS011;53633;49.932;10.884;2022-09-09T10:35:12;3.05;;;0.70;;
66721;SDS011;53633;49.932;10.884;2022-09-09T10:44:18;3.20;;;0.80;;
66721;SDS011;53633;49.932;10.884;2022-09-09T10:47:17;3.10;;;0.60;;
66721;SDS011;53633;49.932;10.884;2022-09-09T10:50:05;3.78;;;0.70;;
66721;SDS011;53633;49.932;10.884;2022-09-09T10:52:47;3.45;;;0.75;;
66721;SDS011;53633;49.932;10.884;2022-09-09T11:01:21;2.43;;;0.70;;
66721;SDS011;53633;49.932;10.884;2022-09-09T11:03:55;2.20;;;0.60;;
66721;SDS011;53633;49.932;10.884;2022-09-09T11:06:44;3.05;;;0.70;;
66721;SDS011;53633;49.932;10.884;2022-09-09T11:09:20;3.05;;;0.65;;
66721;SDS011;53633;49.932;10.884;2022-09-09T11:11:50;3.83;;;0.80;;
66721;SDS011;53633;49.932;10.884;2022-09-09T11:14:21;3.23;;;0.60;;
66721;SDS011;53633;49.932;10.884;2022-09-09T11:20:11;4.68;;;0.98;;
66721;SDS011;53633;49.932;10.884;2022-09-09T11:22:57;3.65;;;0.70;;
66721;SDS011;53633;49.932;10.884;2022-09-09T11:25:31;4.72;;;0.75;;
66721;SDS011;53633;49.932;10.884;2022-09-09T11:28:06;3.10;;;0.67;;
66721;SDS011;53633;49.932;10.884;2022-09-09T11:30:54;4.47;;;0.50;;
66721;SDS011;53633;49.932;10.884;2022-09-09T11:36:42;3.78;;;0.75;;
66721;SDS011;53633;49.932;10.884;2022-09-09T11:39:33;2.53;;;0.70;;
66721;SDS011;53633;49.932;10.884;2022-09-09T11:42:35;7.00;;;1.00;;
66721;SDS011;53633;49.932;10.884;2022-09-09T11:45:09;2.85;;;0.68;;
66721;SDS011;53633;49.932;10.884;2022-09-09T11:47:39;2.33;;;0.68;;
66721;SDS011;53633;49.932;10.884;2022-09-09T11:50:09;4.22;;;0.70;;
66721;SDS011;53633;49.932;10.884;2022-09-09T11:53:15;5.38;;;1.00;;
66721;SDS011;53633;49.932;10.884;2022-09-09T11:55:45;4.70;;;0.80;;
66721;SDS011;53633;49.932;10.884;2022-09-09T11:58:15;4.65;;;0.52;;
66721;SDS011;53633;49.932;10.884;2022-09-09T12:00:45;4.70;;;0.82;;
66721;SDS011;53633;49.932;10.884;2022-09-09T12:06:19;3.50;;;0.85;;
66721;SDS011;53633;49.932;10.884;2022-09-09T12:09:04;6.33;;;0.73;;
66721;SDS011;53633;49.932;10.884;2022-09-09T12:11:35;4.50;;;0.80;;
66721;SDS011;53633;49.932;10.884;2022-09-09T12:14:18;5.55;;;0.80;;
66721;SDS011;53633;49.932;10.884;2022-09-09T12:16:47;5.03;;;0.65;;
66721;SDS011;53633;49.932;10.884;2022-09-09T12:19:17;5.82;;;0.60;;
66721;SDS011;53633;49.932;10.884;2022-09-09T12:21:57;3.03;;;0.67;;
66721;SDS011;53633;49.932;10.884;2022-09-09T12:24:32;2.38;;;0.50;;
66721;SDS011;53633;49.932;10.884;2022-09-09T12:27:06;3.30;;;0.57;;
66721;SDS011;53633;49.932;10.884;2022-09-09T12:29:47;1.77;;;0.40;;
66721;SDS011;53633;49.932;10.884;2022-09-09T12:32:22;2.58;;;0.50;;
66721;SDS011;53633;49.932;10.884;2022-09-09T12:34:53;3.30;;;0.43;;
66721;SDS011;53633;49.932;10.884;2022-09-09T12:37:27;2.55;;;0.40;;
66721;SDS011;53633;49.932;10.884;2022-09-09T12:39:58;2.60;;;0.40;;
66721;SDS011;53633;49.932;10.884;2022-09-09T12:42:27;2.38;;;0.38;;
66721;SDS011;53633;49.932;10.884;2022-09-09T12:44:56;2.10;;;0.45;;
66721;SDS011;53633;49.932;10.884;2022-09-09T12:47:29;2.50;;;0.40;;
66721;SDS011;53633;49.932;10.884;2022-09-09T12:50:02;2.50;;;0.45;;
66721;SDS011;53633;49.932;10.884;2022-09-09T12:52:35;4.53;;;0.80;;
66721;SDS011;53633;49.932;10.884;2022-09-09T12:55:16;2.13;;;0.40;;
66721;SDS011;53633;49.932;10.884;2022-09-09T12:57:45;2.05;;;0.50;;
66721;SDS011;53633;49.932;10.884;2022-09-09T13:00:18;1.57;;;0.60;;
66721;SDS011;53633;49.932;10.884;2022-09-09T13:02:51;2.45;;;0.45;;
66721;SDS011;53633;49.932;10.884;2022-09-09T13:05:21;1.98;;;0.60;;
66721;SDS011;53633;49.932;10.884;2022-09-09T13:08:02;2.35;;;0.52;;
66721;SDS011;53633;49.932;10.884;2022-09-09T13:10:32;2.22;;;0.50;;
66721;SDS011;53633;49.932;10.884;2022-09-09T13:13:19;1.97;;;0.40;;
66721;SDS011;53633;49.932;10.884;2022-09-09T13:15:51;2.08;;;0.50;;
66721;SDS011;53633;49.932;10.884;2022-09-09T13:18:27;3.47;;;0.57;;
66721;SDS011;53633;49.932;10.884;2022-09-09T13:20:57;2.53;;;0.50;;
66721;SDS011;53633;49.932;10.884;2022-09-09T13:23:30;3.03;;;0.60;;
66721;SDS011;53633;49.932;10.884;2022-09-09T13:26:00;1.40;;;0.50;;
66721;SDS011;53633;49.932;10.884;2022-09-09T13:28:30;3.20;;;0.68;;
66721;SDS011;53633;49.932;10.884;2022-09-09T13:31:19;2.63;;;0.60;;
66721;SDS011;53633;49.932;10.884;2022-09-09T13:33:49;2.88;;;0.57;;
66721;SDS011;53633;49.932;10.884;2022-09-09T13:36:17;1.50;;;0.50;;
66721;SDS011;53633;49.932;10.884;2022-09-09T13:39:02;2.60;;;0.50;;
66721;SDS011;53633;49.932;10.884;2022-09-09T13:41:31;2.30;;;0.45;;
66721;SDS011;53633;49.932;10.884;2022-09-09T13:44:00;3.30;;;0.50;;
66721;SDS011;53633;49.932;10.884;2022-09-09T13:46:32;2.55;;;0.52;;
66721;SDS011;53633;49.932;10.884;2022-09-09T13:49:02;1.55;;;0.60;;
66721;SDS011;53633;49.932;10.884;2022-09-09T13:51:48;3.80;;;0.63;;
66721;SDS011;53633;49.932;10.884;2022-09-09T13:54:19;2.45;;;0.50;;
66721;SDS011;53633;49.932;10.884;2022-09-09T13:56:52;2.55;;;0.65;;
66721;SDS011;53633;49.932;10.884;2022-09-09T13:59:20;4.35;;;0.50;;
66721;SDS011;53633;49.932;10.884;2022-09-09T14:01:47;3.80;;;0.60;;
66721;SDS011;53633;49.932;10.884;2022-09-09T14:04:14;2.17;;;0.50;;
66721;SDS011;53633;49.932;10.884;2022-09-09T14:06:45;1.92;;;0.50;;
66721;SDS011;53633;49.932;10.884;2022-09-09T14:09:20;4.55;;;0.75;;
66721;SDS011;53633;49.932;10.884;2022-09-09T14:11:50;2.30;;;0.50;;
66721;SDS011;53633;49.932;10.884;2022-09-09T14:14:18;4.50;;;0.50;;
66721;SDS011;53633;49.932;10.884;2022-09-09T14:16:51;3.43;;;0.63;;
66721;SDS011;53633;49.932;10.884;2022-09-09T14:19:19;1.98;;;0.50;;
66721;SDS011;53633;49.932;10.884;2022-09-09T14:21:47;3.28;;;0.70;;
66721;SDS011;53633;49.932;10.884;2022-09-09T14:24:15;1.77;;;0.50;;
66721;SDS011;53633;49.932;10.884;2022-09-09T14:26:43;2.72;;;0.50;;
66721;SDS011;53633;49.932;10.884;2022-09-09T14:29:22;3.73;;;0.50;;
66721;SDS011;53633;49.932;10.884;2022-09-09T14:31:50;2.78;;;0.65;;
66721;SDS011;53633;49.932;10.884;2022-09-09T14:34:18;2.20;;;0.55;;
66721;SDS011;53633;49.932;10.884;2022-09-09T14:36:45;2.05;;;0.70;;
66721;SDS011;53633;49.932;10.884;2022-09-09T14:39:15;2.58;;;0.50;;
66721;SDS011;53633;49.932;10.884;2022-09-09T14:41:48;3.63;;;0.50;;
66721;SDS011;53633;49.932;10.884;2022-09-09T14:44:16;1.95;;;0.60;;
66721;SDS011;53633;49.932;10.884;2022-09-09T14:46:44;2.88;;;0.68;;
66721;SDS011;53633;49.932;10.884;2022-09-09T14:49:12;4.35;;;0.50;;
66721;SDS011;53633;49.932;10.884;2022-09-09T14:51:40;3.67;;;0.70;;
66721;SDS011;53633;49.932;10.884;2022-09-09T14:54:09;1.77;;;0.50;;
66721;SDS011;53633;49.932;10.884;2022-09-09T14:56:36;3.20;;;0.73;;
66721;SDS011;53633;49.932;10.884;2022-09-09T14:59:10;2.90;;;0.60;;
66721;SDS011;53633;49.932;10.884;2022-09-09T15:01:40;3.78;;;0.50;;
66721;SDS011;53633;49.932;10.884;2022-09-09T15:04:10;2.30;;;0.50;;
66721;SDS011;53633;49.932;10.884;2022-09-09T15:06:43;3.37;;;0.70;;
66721;SDS011;53633;49.932;10.884;2022-09-09T15:09:10;6.00;;;1.08;;
66721;SDS011;53633;49.932;10.884;2022-09-09T15:11:37;5.78;;;0.80;;
66721;SDS011;53633;49.932;10.884;2022-09-09T15:14:07;1.77;;;0.52;;
66721;SDS011;53633;49.932;10.884;2022-09-09T15:16:47;2.70;;;0.57;;
66721;SDS011;53633;49.932;10.884;2022-09-09T15:19:16;2.03;;;0.50;;
66721;SDS011;53633;49.932;10.884;2022-09-09T15:21:46;3.05;;;0.55;;
66721;SDS011;53633;49.932;10.884;2022-09-09T15:24:17;2.72;;;0.80;;
66721;SDS011;53633;49.932;10.884;2022-09-09T15:26:44;3.63;;;0.70;;
66721;SDS011;53633;49.932;10.884;2022-09-09T15:29:14;4.63;;;0.70;;
66721;SDS011;53633;49.932;10.884;2022-09-09T15:31:43;4.33;;;0.70;;
66721;SDS011;53633;49.932;10.884;2022-09-09T15:34:16;5.57;;;0.77;;
66721;SDS011;53633;49.932;10.884;2022-09-09T15:36:44;3.65;;;0.60;;
66721;SDS011;53633;49.932;10.884;2022-09-09T15:39:28;4.72;;;0.60;;